createdAt,value
2018-07-23T00:02:01.693Z,17.99
2018-07-23T00:04:29.967Z,17.94
2018-07-23T00:06:58.280Z,17.86
2018-07-23T00:09:26.553Z,17.80
2018-07-23T00:11:54.860Z,17.85
2018-07-23T00:14:23.129Z,17.97
2018-07-23T00:16:51.432Z,17.99
2018-07-23T00:19:19.653Z,17.84
2018-07-23T00:21:47.904Z,17.90
2018-07-23T00:24:16.209Z,17.80
2018-07-23T00:26:44.450Z,17.81
2018-07-23T00:29:12.737Z,17.79
2018-07-23T00:31:41.041Z,17.81
2018-07-23T00:34:09.357Z,17.87
2018-07-23T00:36:38.616Z,17.96
2018-07-23T00:39:08.099Z,17.97
2018-07-23T00:41:36.488Z,18.03
2018-07-23T00:44:04.890Z,17.94
2018-07-23T00:46:33.269Z,17.97
2018-07-23T00:49:01.589Z,18.08
2018-07-23T00:51:29.904Z,18.00
2018-07-23T00:53:58.193Z,18.07
2018-07-23T00:56:26.445Z,18.11
2018-07-23T00:58:54.714Z,18.19
2018-07-23T01:01:22.969Z,18.12
2018-07-23T01:03:51.270Z,18.21
2018-07-23T01:06:19.517Z,18.14
2018-07-23T01:08:47.813Z,18.02
2018-07-23T01:11:16.100Z,18.10
2018-07-23T01:13:44.353Z,18.10
2018-07-23T01:16:12.636Z,18.17
2018-07-23T01:18:40.932Z,18.21
2018-07-23T01:21:09.200Z,18.10
2018-07-23T01:23:37.473Z,18.13
2018-07-23T01:26:06.306Z,18.12
2018-07-23T01:28:34.553Z,18.12
2018-07-23T01:31:02.857Z,18.31
2018-07-23T01:33:31.122Z,18.19
2018-07-23T01:35:59.413Z,18.13
2018-07-23T01:38:27.664Z,18.20
2018-07-23T01:40:55.950Z,18.08
2018-07-23T01:43:24.203Z,18.04
2018-07-23T01:45:52.500Z,18.02
2018-07-23T01:48:20.769Z,18.03
2018-07-23T01:50:49.061Z,18.07
2018-07-23T01:53:17.334Z,18.11
2018-07-23T01:55:45.624Z,18.07
2018-07-23T01:58:13.974Z,17.98
2018-07-23T02:00:42.326Z,17.99
2018-07-23T02:03:10.597Z,18.07
2018-07-23T02:05:38.892Z,18.07
2018-07-23T02:08:07.207Z,18.09
2018-07-23T02:10:35.505Z,18.14
2018-07-23T02:13:03.824Z,18.05
2018-07-23T02:15:32.104Z,18.13
2018-07-23T02:18:00.381Z,18.16
2018-07-23T02:20:28.626Z,18.20
2018-07-23T02:22:56.945Z,18.25
2018-07-23T02:25:25.225Z,18.18
2018-07-23T02:27:53.517Z,17.96
2018-07-23T02:30:21.777Z,17.91
2018-07-23T02:32:50.087Z,17.88
2018-07-23T02:35:18.338Z,17.93
2018-07-23T02:37:46.622Z,17.80
2018-07-23T02:40:14.885Z,17.68
2018-07-23T02:42:43.202Z,17.67
2018-07-23T02:45:11.457Z,17.46
2018-07-23T02:47:39.737Z,17.48
2018-07-23T02:50:08.011Z,17.47
2018-07-23T02:52:37.318Z,17.54
2018-07-23T02:55:05.582Z,17.54
2018-07-23T02:57:33.846Z,17.56
2018-07-23T03:00:02.127Z,17.56
2018-07-23T03:02:30.367Z,17.78
2018-07-23T03:04:58.681Z,17.56
2018-07-23T03:07:26.937Z,17.62
2018-07-23T03:09:55.225Z,17.49
2018-07-23T03:12:23.488Z,17.54
2018-07-23T03:14:52.777Z,17.56
2018-07-23T03:17:21.166Z,17.57
2018-07-23T03:19:49.440Z,17.50
2018-07-23T03:22:17.697Z,17.50
2018-07-23T03:24:46.361Z,17.24
2018-07-23T03:27:14.613Z,17.33
2018-07-23T03:29:42.905Z,17.28
2018-07-23T03:32:11.177Z,17.32
2018-07-23T03:34:39.464Z,17.29
2018-07-23T03:37:07.723Z,17.43
2018-07-23T03:39:38.039Z,17.45
2018-07-23T03:42:06.497Z,17.48
2018-07-23T03:44:34.785Z,17.42
2018-07-23T03:47:03.045Z,17.42
2018-07-23T03:49:31.357Z,17.43
2018-07-23T03:51:59.606Z,17.47
2018-07-23T03:54:28.896Z,17.47
2018-07-23T03:56:57.205Z,17.60
2018-07-23T03:59:25.467Z,17.65
2018-07-23T04:01:53.746Z,17.75
2018-07-23T04:04:22.013Z,17.69
2018-07-23T04:06:50.332Z,17.68
2018-07-23T04:09:18.613Z,17.52
2018-07-23T04:11:46.901Z,17.55
2018-07-23T04:14:15.645Z,17.54
2018-07-23T04:16:43.918Z,17.60
2018-07-23T04:19:12.181Z,17.74
2018-07-23T04:21:40.481Z,17.68
2018-07-23T04:24:08.769Z,17.80
2018-07-23T04:26:37.064Z,17.80
2018-07-23T04:29:05.510Z,17.96
2018-07-23T04:31:33.907Z,18.07
2018-07-23T04:34:04.215Z,18.05
2018-07-23T04:36:32.492Z,18.04
2018-07-23T04:39:00.750Z,18.16
2018-07-23T04:41:29.060Z,18.25
2018-07-23T04:43:57.323Z,18.32
2018-07-23T04:46:25.609Z,18.40
2018-07-23T04:48:53.906Z,18.23
2018-07-23T04:51:22.189Z,18.33
2018-07-23T04:53:50.460Z,18.35
2018-07-23T04:56:18.716Z,18.45
2018-07-23T04:58:46.997Z,18.62
2018-07-23T05:01:15.279Z,18.75
2018-07-23T05:03:43.600Z,18.65
2018-07-23T05:06:11.969Z,19.02
2018-07-23T05:08:40.319Z,18.95
2018-07-23T05:11:09.533Z,19.10
2018-07-23T05:13:37.829Z,19.25
2018-07-23T05:16:06.191Z,19.24
2018-07-23T05:18:34.392Z,19.41
2018-07-23T05:21:02.647Z,19.61
2018-07-23T05:23:31.020Z,19.20
2018-07-23T05:25:59.289Z,19.23
2018-07-23T05:28:27.569Z,19.40
2018-07-23T05:30:55.821Z,19.47
2018-07-23T05:33:24.088Z,19.74
2018-07-23T05:35:52.372Z,20.10
2018-07-23T05:38:20.636Z,20.10
2018-07-23T05:40:48.937Z,20.21
2018-07-23T05:43:17.193Z,20.24
2018-07-23T05:45:45.470Z,20.05
2018-07-23T05:48:13.786Z,20.14
2018-07-23T05:50:42.073Z,20.35
2018-07-23T05:53:11.361Z,20.53
2018-07-23T05:55:39.636Z,20.65
2018-07-23T05:58:07.892Z,20.73
2018-07-23T06:00:40.125Z,21.03
2018-07-23T06:03:09.589Z,21.14
2018-07-23T06:05:37.912Z,20.94
2018-07-23T06:08:06.230Z,20.66
2018-07-23T06:10:34.526Z,20.75
2018-07-23T06:13:02.848Z,20.80
2018-07-23T06:15:31.574Z,21.21
2018-07-23T06:17:59.935Z,21.23
2018-07-23T06:20:28.291Z,20.97
2018-07-23T06:22:56.701Z,20.98
2018-07-23T06:25:25.027Z,21.30
2018-07-23T06:27:54.757Z,21.15
2018-07-23T06:30:23.079Z,21.13
2018-07-23T06:32:51.343Z,21.18
2018-07-23T06:35:19.645Z,21.47
2018-07-23T06:37:47.954Z,21.52
2018-07-23T06:40:18.229Z,21.45
2018-07-23T06:42:46.512Z,22.29
2018-07-23T06:45:14.785Z,22.47
2018-07-23T06:47:43.061Z,22.84
2018-07-23T06:50:11.329Z,22.84
2018-07-23T06:52:39.621Z,23.00
2018-07-23T06:55:08.915Z,22.52
2018-07-23T06:57:37.201Z,21.89
2018-07-23T07:00:06.109Z,22.19
2018-07-23T07:02:34.416Z,22.29
2018-07-23T07:05:02.845Z,22.48
2018-07-23T07:07:32.207Z,23.01
2018-07-23T07:10:02.567Z,23.46
2018-07-23T07:12:30.999Z,23.35
2018-07-23T07:14:59.255Z,22.39
2018-07-23T07:17:27.759Z,22.21
2018-07-23T07:19:56.076Z,22.40
2018-07-23T07:22:26.373Z,22.81
2018-07-23T07:24:54.681Z,22.55
2018-07-23T07:27:24.287Z,23.35
2018-07-23T07:29:52.533Z,23.67
2018-07-23T07:32:20.778Z,24.23
2018-07-23T07:34:51.235Z,23.98
2018-07-23T07:37:19.437Z,23.22
2018-07-23T07:39:48.745Z,23.68
2018-07-23T07:42:17.023Z,23.00
2018-07-23T07:44:47.380Z,23.06
2018-07-23T07:47:15.644Z,23.30
2018-07-23T07:49:43.916Z,23.99
2018-07-23T07:52:13.056Z,22.99
2018-07-23T07:54:41.382Z,22.61
2018-07-23T07:57:10.640Z,22.69
2018-07-23T07:59:39.997Z,23.20
2018-07-23T08:02:08.341Z,23.15
2018-07-23T08:04:36.633Z,23.85
2018-07-23T08:07:04.994Z,23.76
2018-07-23T08:09:33.273Z,23.13
2018-07-23T08:12:02.590Z,22.76
2018-07-23T08:14:30.861Z,23.11
2018-07-23T08:16:59.124Z,23.39
2018-07-23T08:19:27.401Z,23.71
2018-07-23T08:21:55.660Z,23.52
2018-07-23T08:24:23.961Z,23.35
2018-07-23T08:26:52.236Z,24.56
2018-07-23T08:29:20.532Z,24.88
2018-07-23T08:31:48.954Z,24.84
2018-07-23T08:34:18.169Z,25.68
2018-07-23T08:36:46.473Z,25.52
2018-07-23T08:39:14.748Z,24.83
2018-07-23T08:41:43.059Z,25.45
2018-07-23T08:44:11.381Z,25.30
2018-07-23T08:46:40.764Z,25.53
2018-07-23T08:49:09.008Z,24.68
2018-07-23T08:51:38.485Z,23.80
2018-07-23T08:54:07.393Z,23.86
2018-07-23T08:56:37.788Z,24.32
2018-07-23T08:59:06.029Z,24.82
2018-07-23T09:01:34.313Z,25.30
2018-07-23T09:04:02.577Z,25.45
2018-07-23T09:06:30.852Z,24.75
2018-07-23T09:08:59.105Z,23.99
2018-07-23T09:11:27.397Z,23.45
2018-07-23T09:13:55.649Z,23.74
2018-07-23T09:16:23.945Z,24.97
2018-07-23T09:18:52.190Z,25.84
2018-07-23T09:21:20.509Z,26.91
2018-07-23T09:23:48.823Z,26.40
2018-07-23T09:26:18.038Z,24.90
2018-07-23T09:28:48.318Z,24.41
2018-07-23T09:31:16.581Z,24.34
2018-07-23T09:33:44.858Z,24.27
2018-07-23T09:36:13.123Z,24.75
2018-07-23T09:38:42.505Z,25.21
2018-07-23T09:41:10.783Z,26.04
2018-07-23T09:43:39.072Z,25.60
2018-07-23T09:46:07.329Z,25.24
2018-07-23T09:48:35.687Z,25.31
2018-07-23T09:51:03.929Z,25.14
2018-07-23T09:53:32.197Z,24.95
2018-07-23T09:56:01.438Z,25.94
2018-07-23T09:58:29.742Z,26.29
2018-07-23T10:01:04.345Z,25.83
2018-07-23T10:03:33.088Z,25.55
2018-07-23T10:06:01.225Z,26.15
2018-07-23T10:08:29.545Z,25.86
2018-07-23T10:10:57.858Z,25.98
2018-07-23T10:13:27.146Z,25.87
2018-07-23T10:15:55.397Z,25.34
2018-07-23T10:18:24.758Z,25.46
2018-07-23T10:20:53.013Z,25.82
2018-07-23T10:23:21.369Z,25.69
2018-07-23T10:25:49.637Z,25.81
2018-07-23T10:28:17.902Z,25.59
2018-07-23T10:30:47.168Z,25.75
2018-07-23T10:33:15.453Z,25.97
2018-07-23T10:35:43.742Z,25.41
2018-07-23T10:38:12.019Z,25.45
2018-07-23T10:40:41.369Z,25.28
2018-07-23T10:43:09.700Z,26.12
2018-07-23T10:45:37.983Z,26.15
2018-07-23T10:48:06.613Z,25.99
2018-07-23T10:50:34.893Z,26.24
2018-07-23T10:53:03.197Z,26.58
2018-07-23T10:55:32.551Z,25.70
2018-07-23T10:58:01.677Z,25.92
2018-07-23T11:00:29.997Z,25.92
2018-07-23T11:02:58.248Z,25.77
2018-07-23T11:05:26.537Z,25.28
2018-07-23T11:07:54.805Z,25.59
2018-07-23T11:10:23.197Z,25.92
2018-07-23T11:12:51.554Z,26.23
2018-07-23T11:15:19.791Z,26.01
2018-07-23T11:17:48.053Z,25.88
2018-07-23T11:20:16.327Z,25.89
2018-07-23T11:22:44.637Z,25.67
2018-07-23T11:25:38.595Z,26.53
2018-07-23T11:27:41.246Z,26.40
2018-07-23T11:30:09.538Z,26.16
2018-07-23T11:32:37.829Z,25.91
2018-07-23T11:35:06.481Z,26.27
2018-07-23T11:37:34.767Z,26.86
2018-07-23T11:40:03.274Z,26.97
2018-07-23T11:42:32.761Z,27.06
2018-07-23T11:45:01.002Z,26.51
2018-07-23T11:47:29.293Z,27.16
2018-07-23T11:49:57.556Z,27.38
2018-07-23T11:52:26.117Z,26.80
2018-07-23T11:54:54.405Z,27.25
2018-07-23T11:57:22.680Z,27.93
2018-07-23T11:59:50.945Z,27.73
2018-07-23T12:02:19.225Z,27.45
2018-07-23T12:04:47.529Z,26.38
2018-07-23T12:07:15.812Z,26.43
2018-07-23T12:09:44.099Z,27.10
2018-07-23T12:12:12.366Z,27.77
2018-07-23T12:14:41.784Z,27.06
2018-07-23T12:17:10.159Z,27.49
2018-07-23T12:19:38.451Z,26.89
2018-07-23T12:22:06.765Z,26.71
2018-07-23T12:24:35.080Z,27.23
2018-07-23T12:27:03.329Z,27.34
2018-07-23T12:29:32.683Z,26.76
2018-07-23T12:32:01.933Z,26.74
2018-07-23T12:34:30.224Z,26.20
2018-07-23T12:36:58.474Z,27.06
2018-07-23T12:39:26.759Z,27.11
2018-07-23T12:41:55.023Z,27.60
2018-07-23T12:44:23.361Z,27.98
2018-07-23T12:46:51.606Z,28.54
2018-07-23T12:49:19.898Z,28.50
2018-07-23T12:51:48.160Z,28.42
2018-07-23T12:54:17.506Z,27.75
2018-07-23T12:56:45.769Z,27.26
2018-07-23T12:59:15.117Z,27.71
2018-07-23T13:01:44.461Z,28.05
2018-07-23T13:04:14.805Z,28.71
2018-07-23T13:06:43.670Z,29.27
2018-07-23T13:09:12.986Z,28.71
2018-07-23T13:11:41.261Z,27.74
2018-07-23T13:14:09.740Z,27.66
2018-07-23T13:16:38.024Z,28.36
2018-07-23T13:19:06.381Z,28.51
2018-07-23T13:21:34.708Z,28.23
2018-07-23T13:24:03.171Z,28.28
2018-07-23T13:26:31.477Z,27.75
2018-07-23T13:28:59.716Z,27.66
2018-07-23T13:31:28.050Z,28.45
2018-07-23T13:33:56.317Z,28.60
2018-07-23T13:36:25.669Z,28.18
2018-07-23T13:38:54.242Z,29.08
2018-07-23T13:41:22.574Z,28.39
2018-07-23T13:43:52.929Z,28.48
2018-07-23T13:46:21.255Z,28.70
2018-07-23T13:48:49.501Z,29.28
2018-07-23T13:51:17.841Z,28.91
2018-07-23T13:53:49.637Z,29.85
2018-07-23T13:56:18.206Z,31.16
2018-07-23T13:58:46.481Z,32.66
2018-07-23T14:01:14.877Z,33.85
2018-07-23T14:03:43.222Z,30.53
2018-07-23T14:21:40.500Z,44.23
2018-07-23T14:24:08.857Z,39.00
2018-07-23T14:26:37.109Z,36.31
2018-07-23T14:29:05.921Z,38.01
2018-07-23T14:31:34.178Z,39.33
2018-07-23T14:34:02.515Z,37.42
2018-07-23T14:36:30.789Z,40.39
2018-07-23T14:39:00.189Z,40.70
2018-07-23T14:41:28.462Z,39.87
2018-07-23T14:43:56.793Z,40.29
2018-07-23T14:46:25.265Z,44.05
2018-07-23T14:48:53.541Z,45.49
2018-07-23T14:51:21.930Z,45.32
2018-07-23T14:53:50.263Z,43.09
2018-07-23T14:56:18.529Z,44.44
2018-07-23T14:58:46.817Z,44.90
2018-07-23T15:01:15.079Z,43.11
2018-07-23T15:03:43.616Z,42.83
2018-07-23T15:06:12.225Z,39.83
2018-07-23T15:08:40.571Z,43.61
2018-07-23T15:11:09.122Z,44.07
2018-07-23T15:13:37.433Z,43.28
2018-07-23T15:16:06.067Z,43.69
2018-07-23T15:18:34.628Z,36.39
2018-07-23T15:21:03.079Z,36.76
2018-07-23T15:23:31.325Z,40.19
2018-07-23T15:25:59.802Z,42.67
2018-07-23T15:28:28.053Z,43.93
2018-07-23T15:30:56.405Z,43.61
2018-07-23T15:33:25.681Z,44.91
2018-07-23T15:35:53.967Z,46.51
2018-07-23T15:38:22.372Z,43.70
2018-07-23T15:40:50.661Z,36.66
2018-07-23T15:43:18.940Z,38.97
2018-07-23T15:45:47.603Z,39.67
2018-07-23T15:48:15.576Z,37.88
2018-07-23T15:50:44.030Z,38.46
2018-07-23T15:53:12.288Z,41.63
2018-07-23T15:55:40.571Z,42.05
2018-07-23T15:58:09.881Z,42.90
2018-07-23T16:00:39.245Z,42.63
2018-07-23T16:03:07.569Z,40.12
2018-07-23T16:05:36.821Z,38.94
2018-07-23T16:08:08.877Z,40.96
2018-07-23T16:10:37.150Z,43.52
2018-07-23T16:13:05.436Z,42.79
2018-07-23T16:15:33.693Z,42.70
2018-07-23T16:18:01.981Z,40.97
2018-07-23T16:20:30.241Z,41.49
2018-07-23T16:22:58.529Z,42.41
2018-07-23T16:25:26.813Z,40.24
2018-07-23T16:27:55.125Z,40.92
2018-07-23T16:30:23.413Z,41.47
2018-07-23T16:32:51.723Z,41.63
2018-07-23T16:35:20.973Z,37.71
2018-07-23T16:37:49.253Z,39.96
2018-07-23T16:40:17.515Z,37.52
2018-07-23T16:42:45.811Z,37.24
2018-07-23T16:45:14.060Z,37.69
2018-07-23T16:47:42.362Z,39.83
2018-07-23T16:50:10.620Z,39.22
2018-07-23T16:52:39.953Z,39.09
2018-07-23T16:55:08.400Z,40.05
2018-07-23T16:57:42.461Z,38.31
2018-07-23T17:00:10.909Z,37.98
2018-07-23T17:02:40.516Z,37.98
2018-07-23T17:05:08.789Z,38.24
2018-07-23T17:07:37.065Z,35.64
2018-07-23T17:10:05.418Z,36.45
2018-07-23T17:12:33.819Z,35.62
2018-07-23T17:15:02.347Z,36.90
2018-07-23T17:17:30.589Z,36.57
2018-07-23T17:19:58.892Z,38.24
2018-07-23T17:22:27.200Z,36.89
2018-07-23T17:24:55.522Z,36.16
2018-07-23T17:27:23.819Z,35.96
2018-07-23T17:29:52.152Z,32.42
2018-07-23T17:32:20.422Z,29.86
2018-07-23T17:34:48.717Z,29.49
2018-07-23T17:37:18.220Z,28.86
2018-07-23T17:39:46.500Z,28.59
2018-07-23T17:42:14.749Z,28.45
2018-07-23T17:44:44.104Z,28.08
2018-07-23T17:47:12.364Z,28.11
2018-07-23T17:49:40.626Z,27.79
2018-07-23T17:52:09.033Z,27.71
2018-07-23T17:54:37.325Z,27.74
2018-07-23T17:57:05.691Z,27.58
2018-07-23T17:59:33.916Z,27.12
2018-07-23T18:02:03.292Z,27.05
2018-07-23T18:04:32.740Z,27.03
2018-07-23T18:07:01.029Z,27.05
2018-07-23T18:09:29.769Z,26.93
2018-07-23T18:11:58.112Z,27.12
2018-07-23T18:14:27.387Z,27.07
2018-07-23T18:16:56.713Z,26.93
2018-07-23T18:19:24.971Z,26.60
2018-07-23T18:21:53.240Z,26.31
2018-07-23T18:24:21.553Z,26.24
2018-07-23T18:26:49.836Z,26.14
2018-07-23T18:29:18.136Z,26.06
2018-07-23T18:31:46.477Z,26.20
2018-07-23T18:34:14.714Z,26.18
2018-07-23T18:36:42.980Z,26.16
2018-07-23T18:39:12.990Z,26.16
2018-07-23T18:41:41.855Z,25.94
2018-07-23T18:44:10.411Z,26.08
2018-07-23T18:46:38.817Z,25.92
2018-07-23T18:49:30.150Z,25.86
2018-07-23T18:51:58.467Z,25.91
2018-07-23T18:54:27.885Z,25.88
2018-07-23T18:56:58.382Z,25.72
2018-07-23T18:59:26.657Z,25.81
2018-07-23T19:01:55.832Z,25.89
2018-07-23T19:04:24.133Z,25.80
2018-07-23T19:06:52.415Z,25.59
2018-07-23T19:09:22.689Z,25.45
2018-07-23T19:11:52.517Z,25.33
2018-07-23T19:14:21.086Z,25.26
2018-07-23T19:16:50.257Z,25.16
2018-07-23T19:19:18.558Z,25.08
2018-07-23T19:21:46.817Z,25.02
2018-07-23T19:24:15.146Z,25.08
2018-07-23T19:26:43.461Z,24.99
2018-07-23T19:29:11.733Z,24.97
2018-07-23T19:31:39.981Z,24.92
2018-07-23T19:34:08.321Z,24.77
2018-07-23T19:36:36.602Z,24.77
2018-07-23T19:39:08.817Z,24.72
2018-07-23T19:41:37.528Z,24.48
2018-07-23T19:44:05.962Z,24.49
2018-07-23T19:46:34.260Z,24.38
2018-07-23T19:49:02.537Z,24.30
2018-07-23T19:51:30.816Z,24.32
2018-07-23T19:53:59.070Z,24.21
2018-07-23T19:56:27.346Z,24.14
2018-07-23T19:58:55.601Z,24.12
2018-07-23T20:01:23.872Z,24.01
2018-07-23T20:03:52.118Z,24.06
2018-07-23T20:06:23.793Z,23.91
2018-07-23T20:08:53.060Z,23.82
2018-07-23T20:11:23.109Z,23.87
2018-07-23T20:13:51.657Z,23.92
2018-07-23T20:16:20.072Z,23.82
2018-07-23T20:18:48.341Z,23.81
2018-07-23T20:21:16.636Z,23.86
2018-07-23T20:23:45.273Z,23.76
2018-07-23T20:26:13.785Z,23.79
2018-07-23T20:28:42.031Z,23.78
2018-07-23T20:31:10.322Z,23.76
2018-07-23T20:33:38.642Z,23.66
2018-07-23T20:36:07.061Z,23.57
2018-07-23T20:38:35.781Z,23.55
2018-07-23T20:41:04.110Z,23.59
2018-07-23T20:43:33.657Z,23.60
2018-07-23T20:46:03.241Z,23.51
2018-07-23T20:48:31.605Z,23.55
2018-07-23T20:50:59.949Z,23.46
2018-07-23T20:53:28.218Z,23.30
2018-07-23T20:55:56.469Z,23.29
2018-07-23T20:58:24.769Z,23.16
2018-07-23T21:00:53.013Z,23.12
2018-07-23T21:03:21.754Z,23.09
2018-07-23T21:05:50.013Z,23.12
2018-07-23T21:08:18.293Z,23.10
2018-07-23T21:10:46.557Z,23.01
2018-07-23T21:13:14.833Z,22.95
2018-07-23T21:15:43.085Z,22.92
2018-07-23T21:18:12.504Z,22.91
2018-07-23T21:20:40.873Z,22.94
2018-07-23T21:23:09.194Z,22.88
2018-07-23T21:25:37.468Z,22.91
2018-07-23T21:28:05.796Z,22.90
2018-07-23T21:30:34.076Z,22.88
2018-07-23T21:33:02.345Z,22.90
2018-07-23T21:35:30.694Z,22.82
2018-07-23T21:37:58.956Z,22.79
2018-07-23T21:40:27.356Z,22.71
2018-07-23T21:42:55.604Z,22.79
2018-07-23T21:45:23.885Z,22.78
2018-07-23T21:47:52.129Z,22.71
2018-07-23T21:50:21.476Z,22.56
2018-07-23T21:52:49.718Z,22.51
2018-07-23T21:55:18.019Z,22.52
2018-07-23T21:57:46.255Z,22.53
2018-07-23T22:00:15.536Z,22.53
2018-07-23T22:02:44.878Z,22.48
2018-07-23T22:05:14.253Z,22.48
2018-07-23T22:07:42.497Z,22.53
2018-07-23T22:10:11.106Z,22.49
2018-07-23T22:12:39.370Z,22.38
2018-07-23T22:15:09.797Z,22.34
2018-07-23T22:17:38.149Z,22.40
2018-07-23T22:20:07.189Z,22.45
2018-07-23T22:22:35.461Z,22.38
2018-07-23T22:25:03.974Z,22.35
2018-07-23T22:27:32.490Z,22.39
2018-07-23T22:30:00.781Z,22.35
2018-07-23T22:32:29.106Z,22.35
2018-07-23T22:34:57.357Z,22.34
2018-07-23T22:37:25.637Z,22.27
2018-07-23T22:39:54.962Z,22.13
2018-07-23T22:42:25.493Z,22.18
2018-07-23T22:44:53.737Z,22.15
2018-07-23T22:47:22.033Z,22.16
2018-07-23T22:49:50.356Z,22.07
2018-07-23T22:52:18.661Z,22.04
2018-07-23T22:54:47.007Z,22.08
2018-07-23T22:57:15.288Z,22.01
2018-07-23T22:59:43.533Z,21.95
2018-07-23T23:02:11.798Z,21.95
2018-07-23T23:04:40.161Z,21.88
2018-07-23T23:07:08.441Z,21.96
2018-07-23T23:09:37.763Z,21.89
2018-07-23T23:12:06.061Z,21.82
2018-07-23T23:14:34.321Z,21.76
2018-07-23T23:18:05.200Z,21.80
2018-07-23T23:20:33.616Z,21.62
2018-07-23T23:23:01.953Z,21.71
2018-07-23T23:25:30.314Z,21.68
2018-07-23T23:27:58.608Z,21.73
2018-07-23T23:30:26.865Z,21.62
2018-07-23T23:32:55.137Z,21.71
2018-07-23T23:35:23.381Z,21.75
2018-07-23T23:37:51.676Z,21.68
2018-07-23T23:40:19.945Z,21.66
2018-07-23T23:42:48.193Z,21.57
2018-07-23T23:45:16.473Z,21.56
2018-07-23T23:47:44.717Z,21.53
2018-07-23T23:50:12.989Z,21.56
2018-07-23T23:52:41.239Z,21.40
2018-07-23T23:55:09.529Z,21.45
2018-07-23T23:57:37.773Z,21.52
